Time;durP1;ratioP1;P1;durP2;ratioP2;P2;SDS_P1;SDS_P2;PMS_P1;PMS_P2;Temp;Humidity;BMP_temperature;BMP_pressure;BME280_temperature;BME280_humidity;BME280_pressure;Samples;Min_cycle;Max_cycle;Signal;HPM_P1;HPM_P2
2021/09/14 00:00:09;;;;;;;13.88;9.50;;;15.30;94.80;;;13.36;100.00;100578.34;5068138;28;20049;-73
2021/09/14 00:02:39;;;;;;;13.65;9.75;;;15.30;94.90;;;13.39;100.00;100580.69;5068631;28;20060;-72
2021/09/14 00:05:08;;;;;;;16.35;10.32;;;15.30;95.00;;;13.36;100.00;100575.63;5049907;28;20053;-72
2021/09/14 00:07:35;;;;;;;14.43;10.40;;;15.30;95.10;;;13.40;100.00;100568.69;5067811;28;20045;-73
2021/09/14 00:10:03;;;;;;;15.70;9.63;;;15.30;95.20;;;13.41;100.00;100565.75;5066623;28;20052;-72
2021/09/14 00:12:30;;;;;;;15.55;9.98;;;15.30;95.40;;;13.40;100.00;100569.56;5067362;28;20056;-72
2021/09/14 00:14:59;;;;;;;15.60;9.90;;;15.40;95.40;;;13.42;100.00;100567.47;5067861;28;20048;-72
2021/09/14 00:17:26;;;;;;;13.68;9.80;;;15.40;95.50;;;13.44;100.00;100567.25;5068092;28;20385;-72
2021/09/14 00:19:53;;;;;;;15.45;10.40;;;15.40;95.60;;;13.42;100.00;100566.59;5049830;28;20087;-72
2021/09/14 00:22:21;;;;;;;13.95;10.20;;;15.40;95.60;;;13.39;100.00;100567.03;5067763;28;20108;-72
2021/09/14 00:24:48;;;;;;;14.50;10.40;;;15.40;95.50;;;13.35;100.00;100563.00;5068076;28;20044;-72
2021/09/14 00:27:15;;;;;;;16.08;10.43;;;15.40;95.40;;;13.34;100.00;100561.31;5068186;28;20416;-73
2021/09/14 00:29:43;;;;;;;16.52;11.02;;;15.40;95.40;;;13.31;100.00;100570.78;5066821;28;20098;-72
2021/09/14 00:32:11;;;;;;;17.58;11.05;;;15.40;95.40;;;13.30;100.00;100567.16;5049400;28;20826;-73
2021/09/14 00:34:39;;;;;;;11.63;8.98;;;15.30;95.40;;;13.34;100.00;100564.88;5049633;28;20055;-72
2021/09/14 00:37:06;;;;;;;13.93;9.90;;;15.30;95.50;;;13.32;100.00;100566.13;5049362;28;20049;-73
2021/09/14 00:39:34;;;;;;;13.75;10.50;;;15.30;95.40;;;13.32;100.00;100568.88;5050036;28;20195;-72
2021/09/14 00:42:01;;;;;;;14.05;9.82;;;15.30;95.40;;;13.30;100.00;100563.59;5049493;28;20055;-72
2021/09/14 00:44:29;;;;;;;16.58;9.82;;;15.30;95.50;;;13.24;100.00;100562.47;5067743;28;20083;-72
2021/09/14 00:46:56;;;;;;;17.40;11.30;;;15.30;95.50;;;13.23;100.00;100558.06;5049811;28;20059;-72
2021/09/14 00:49:25;;;;;;;17.27;9.98;;;15.30;95.50;;;13.21;100.00;100554.69;5049674;28;20680;-72
2021/09/14 00:51:53;;;;;;;14.05;10.35;;;15.20;95.50;;;13.20;100.00;100553.00;5049302;28;20056;-73
2021/09/14 00:54:20;;;;;;;15.90;10.55;;;15.20;95.30;;;13.24;100.00;100551.56;5049557;28;20049;-72
2021/09/14 00:56:48;;;;;;;16.42;10.40;;;15.20;95.60;;;13.28;100.00;100550.09;5066083;28;20052;-72
2021/09/14 00:59:16;;;;;;;16.38;10.40;;;15.20;95.60;;;13.24;100.00;100548.81;5064690;28;20519;-72
2021/09/14 01:01:44;;;;;;;15.18;10.52;;;15.20;95.60;;;13.20;100.00;100542.06;5085678;28;20044;-72
2021/09/14 01:04:11;;;;;;;14.30;10.57;;;15.20;95.60;;;13.13;100.00;100538.44;5087154;28;20040;-72
2021/09/14 01:06:40;;;;;;;16.20;10.60;;;15.20;95.60;;;13.07;100.00;100544.72;5087469;28;20052;-73
2021/09/14 01:09:09;;;;;;;14.45;10.27;;;15.20;95.60;;;13.06;100.00;100541.16;5069419;28;20052;-73
2021/09/14 01:11:36;;;;;;;12.82;9.70;;;15.10;95.60;;;12.96;100.00;100537.91;5068936;28;20052;-73
2021/09/14 01:14:06;;;;;;;14.57;9.90;;;15.10;95.50;;;12.98;100.00;100537.72;5068996;28;20067;-72
2021/09/14 01:16:36;;;;;;;15.10;10.27;;;15.10;95.60;;;12.94;100.00;100539.16;5069019;28;20138;-72
2021/09/14 01:19:06;;;;;;;14.70;10.00;;;15.00;95.60;;;12.97;100.00;100541.50;5069175;28;20044;-73
2021/09/14 01:21:33;;;;;;;15.70;10.60;;;15.00;95.50;;;12.91;100.00;100535.78;5068820;28;20114;-72
2021/09/14 01:24:03;;;;;;;16.52;9.63;;;15.00;95.50;;;12.91;100.00;100544.00;5087076;28;20071;-73
2021/09/14 01:26:35;;;;;;;12.25;9.55;;;15.00;95.50;;;12.84;100.00;100540.34;5069061;28;20139;-72
2021/09/14 01:29:08;;;;;;;14.13;10.38;;;15.00;95.50;;;12.78;100.00;100546.63;5068535;28;20055;-72
2021/09/14 01:31:37;;;;;;;;;;;14.90;95.50;;;12.80;100.00;100544.53;5069129;28;20059;-72
2021/09/14 01:34:06;;;;;;;14.25;8.93;;;14.90;95.70;;;12.79;100.00;100537.38;5068715;28;19920;-72
2021/09/14 01:36:36;;;;;;;17.75;10.65;;;14.90;95.60;;;12.82;100.00;100538.88;5061415;28;20056;-73
2021/09/14 01:39:05;;;;;;;12.73;9.80;;;14.90;95.90;;;12.69;100.00;100543.19;5069062;28;20137;-72
2021/09/14 01:41:32;;;;;;;15.40;10.13;;;14.90;95.80;;;12.63;100.00;100534.94;5068853;28;20546;-72
2021/09/14 01:44:01;;;;;;;17.33;10.27;;;14.90;95.80;;;12.65;100.00;100539.16;5060280;28;20052;-72
2021/09/14 01:46:28;;;;;;;15.23;10.20;;;14.90;95.80;;;12.66;100.00;100540.00;5050228;28;20045;-72
2021/09/14 01:48:57;;;;;;;14.13;10.10;;;14.80;95.70;;;12.64;100.00;100537.50;5065671;28;20036;-72
2021/09/14 01:51:26;;;;;;;14.80;9.68;;;14.80;95.70;;;12.63;100.00;100543.97;5051250;28;20045;-72
2021/09/14 01:53:56;;;;;;;13.30;9.75;;;14.80;95.70;;;12.63;100.00;100546.72;5052468;28;20052;-72
2021/09/14 01:56:24;;;;;;;14.27;9.30;;;14.80;95.60;;;12.62;100.00;100547.78;5070471;28;20040;-72
2021/09/14 01:58:52;;;;;;;17.58;10.48;;;14.70;95.70;;;12.55;100.00;100546.88;5052439;28;20589;-72
2021/09/14 02:01:23;;;;;;;15.15;9.43;;;14.70;95.80;;;12.57;100.00;100541.22;5051701;28;20119;-72
2021/09/14 02:03:58;;;;;;;18.05;10.88;;;14.70;95.90;;;12.62;100.00;100538.72;5052127;28;20063;-72
2021/09/14 02:06:44;;;;;;;19.00;9.93;;;14.70;95.90;;;12.59;100.00;100539.97;5051862;28;20499;-72
2021/09/14 02:58:37;;;;;;;13.25;9.63;;;14.30;96.10;;;12.09;100.00;100523.56;5056394;28;20652;-72
2021/09/14 02:59:42;;;;;;;;;;;14.30;96.00;;;12.06;100.00;100523.94;5071781;28;20589;-73
2021/09/14 03:02:12;;;;;;;15.63;9.52;;;14.30;96.00;;;12.02;100.00;100522.63;5071111;28;19931;-73
2021/09/14 03:04:40;;;;;;;14.65;10.45;;;14.30;96.20;;;11.99;100.00;100525.75;5070884;28;20044;-73
2021/09/14 03:07:07;;;;;;;14.18;9.30;;;14.20;96.10;;;11.90;100.00;100524.19;5071109;28;20051;-73
2021/09/14 03:09:37;;;;;;;13.95;9.75;;;14.30;96.30;;;11.99;100.00;100522.19;5071227;28;20044;-72
2021/09/14 03:12:07;;;;;;;15.60;10.88;;;14.20;96.10;;;12.07;100.00;100517.44;5070616;28;20044;-72
2021/09/14 03:14:36;;;;;;;13.55;10.05;;;14.20;96.10;;;12.09;100.00;100520.00;5071024;28;20669;-73
2021/09/14 03:17:04;;;;;;;16.60;9.80;;;14.20;96.10;;;12.09;100.00;100523.56;5070989;28;20051;-72
2021/09/14 03:19:33;;;;;;;11.95;9.38;;;14.20;96.20;;;12.08;100.00;100519.13;5070557;28;20483;-72
2021/09/14 03:22:02;;;;;;;14.68;10.65;;;14.20;96.20;;;12.09;100.00;100512.66;5070426;28;20123;-72
2021/09/14 03:24:29;;;;;;;14.07;9.90;;;14.20;96.20;;;12.04;100.00;100508.81;5070686;28;20055;-72
2021/09/14 03:26:59;;;;;;;13.68;9.93;;;14.10;96.20;;;12.03;100.00;100513.44;5070826;28;20055;-73
2021/09/14 03:29:27;;;;;;;13.82;9.57;;;14.20;96.30;;;12.05;100.00;100511.34;5070847;28;20139;-72
2021/09/14 03:31:54;;;;;;;15.35;9.98;;;14.10;96.40;;;11.96;100.00;100506.22;5070289;28;20055;-72
2021/09/14 03:34:22;;;;;;;16.05;9.63;;;14.10;96.30;;;11.99;100.00;100503.09;5087485;28;20047;-72
2021/09/14 03:36:53;;;;;;;15.52;9.68;;;14.10;96.20;;;12.01;100.00;100501.84;5055213;28;20044;-72
2021/09/14 03:39:20;;;;;;;12.15;9.50;;;14.10;96.10;;;12.02;100.00;100503.53;5050573;28;20040;-72
2021/09/14 03:41:51;;;;;;;11.73;9.10;;;14.10;96.20;;;12.00;100.00;100500.16;5050227;28;20139;-72
2021/09/14 03:44:19;;;;;;;15.65;9.93;;;14.10;96.30;;;12.00;100.00;100491.97;5050089;28;20049;-72
2021/09/14 03:46:46;;;;;;;13.82;9.57;;;14.00;96.40;;;11.93;100.00;100486.44;5050318;28;20562;-72
2021/09/14 03:49:15;;;;;;;14.23;10.15;;;14.10;96.40;;;11.93;100.00;100485.59;5050184;28;20048;-73
2021/09/14 03:51:42;;;;;;;14.00;9.93;;;14.10;96.30;;;11.83;100.00;100482.34;5049714;28;20064;-72
2021/09/14 03:54:12;;;;;;;16.27;9.57;;;14.00;96.20;;;11.82;100.00;100477.91;5049745;28;20040;-72
2021/09/14 03:56:41;;;;;;;13.45;9.30;;;14.00;96.20;;;11.83;100.00;100476.88;5050195;28;20059;-72
2021/09/14 03:59:08;;;;;;;13.77;9.43;;;14.00;96.10;;;11.79;100.00;100476.44;5049943;28;20048;-72
2021/09/14 04:01:42;;;;;;;14.88;10.43;;;14.00;96.10;;;11.81;100.00;100474.34;5050025;28;20052;-73
2021/09/14 04:04:15;;;;;;;10.90;8.38;;;14.00;96.10;;;11.78;100.00;100473.88;5050399;28;20462;-72
2021/09/14 04:06:56;;;;;;;13.30;9.02;;;14.00;96.00;;;11.78;100.00;100469.28;5050069;28;20051;-72
2021/09/14 04:09:25;;;;;;;13.30;9.50;;;13.90;96.10;;;11.80;100.00;100471.81;5049793;28;20056;-72
2021/09/14 04:11:54;;;;;;;12.03;8.60;;;13.90;96.00;;;11.77;100.00;100469.50;5049654;28;20052;-72
2021/09/14 04:14:28;;;;;;;13.40;9.35;;;13.90;96.00;;;11.75;100.00;100472.41;5037701;28;20303;-72
2021/09/14 04:16:58;;;;;;;13.88;9.18;;;13.90;96.10;;;11.74;100.00;100473.44;5014508;28;20140;-72
2021/09/14 04:19:27;;;;;;;13.90;9.55;;;13.90;96.10;;;11.81;100.00;100470.78;5046636;28;20045;-72
2021/09/14 04:21:55;;;;;;;14.80;9.10;;;13.90;96.10;;;11.77;100.00;100466.75;5029561;28;20059;-73
2021/09/14 04:24:30;;;;;;;20.02;9.38;;;13.90;96.30;;;11.75;100.00;100464.22;5046643;28;20049;-71
2021/09/14 04:26:57;;;;;;;14.95;9.68;;;13.90;96.20;;;11.77;100.00;100464.88;5029807;28;20048;-69
2021/09/14 04:29:25;;;;;;;17.08;10.20;;;13.80;96.20;;;11.69;100.00;100468.56;5029849;28;20045;-71
2021/09/14 04:31:53;;;;;;;16.65;9.23;;;13.80;96.30;;;11.64;100.00;100464.72;5029260;28;20078;-71
2021/09/14 04:34:21;;;;;;;12.18;8.82;;;13.80;96.20;;;11.64;100.00;100462.84;5046306;28;20688;-72
2021/09/14 04:36:52;;;;;;;12.38;9.05;;;13.80;96.20;;;11.71;100.00;100469.22;5029913;28;20056;-70
2021/09/14 04:39:20;;;;;;;14.68;9.43;;;13.80;96.30;;;11.73;100.00;100458.97;5030001;28;20126;-71
2021/09/14 04:41:49;;;;;;;14.50;10.63;;;13.80;96.30;;;11.72;100.00;100451.81;5029894;28;20815;-71
2021/09/14 04:44:18;;;;;;;14.85;9.82;;;13.80;96.50;;;11.72;100.00;100454.53;5030065;28;20056;-71
2021/09/14 04:46:46;;;;;;;15.43;9.85;;;13.80;96.60;;;11.76;100.00;100445.97;5029814;28;20052;-72
2021/09/14 04:49:14;;;;;;;16.63;10.00;;;13.80;96.70;;;11.74;100.00;100452.44;5029944;28;20053;-70
2021/09/14 04:51:43;;;;;;;13.98;10.02;;;13.80;96.60;;;11.78;100.00;100446.63;5029332;28;20045;-72
2021/09/14 04:54:11;;;;;;;14.45;10.35;;;13.90;96.80;;;11.79;100.00;100442.88;5029765;28;20044;-72
2021/09/14 04:56:38;;;;;;;16.98;10.23;;;13.90;96.90;;;11.83;100.00;100441.44;5044585;28;20122;-70
2021/09/14 04:59:07;;;;;;;14.60;9.80;;;13.90;96.80;;;11.84;100.00;100443.09;5049159;28;20084;-72
2021/09/14 05:01:35;;;;;;;16.27;9.30;;;13.90;96.90;;;11.86;100.00;100446.47;5046322;28;20041;-71
2021/09/14 05:04:03;;;;;;;15.23;10.75;;;13.90;96.80;;;11.77;100.00;100434.03;5029286;28;20041;-70
2021/09/14 05:06:32;;;;;;;14.95;9.85;;;13.90;96.80;;;11.70;100.00;100437.53;5029186;28;20053;-72
2021/09/14 05:09:01;;;;;;;13.00;9.25;;;13.90;96.80;;;11.71;100.00;100433.78;5045847;28;20527;-71
2021/09/14 05:11:30;;;;;;;13.27;9.75;;;13.90;96.90;;;11.72;100.00;100430.00;5028745;28;20060;-71
2021/09/14 05:13:57;;;;;;;14.20;9.73;;;13.90;96.90;;;11.70;100.00;100431.25;5037217;28;20096;-72
2021/09/14 05:16:30;;;;;;;15.25;9.77;;;13.90;96.80;;;11.72;100.00;100430.00;5049498;28;20075;-71
2021/09/14 05:19:29;;;;;;;15.15;10.00;;;13.90;96.90;;;11.77;100.00;100429.44;5049650;28;20052;-71
2021/09/14 05:21:59;;;;;;;15.88;10.63;;;13.90;97.00;;;11.84;100.00;100429.47;5052183;28;20086;-71
2021/09/14 05:24:28;;;;;;;15.25;9.25;;;13.90;97.10;;;11.85;100.00;100428.44;5070865;28;20091;-71
2021/09/14 05:26:56;;;;;;;15.70;9.73;;;13.90;97.10;;;11.85;100.00;100434.75;5070925;28;20416;-71
2021/09/14 05:29:24;;;;;;;13.75;10.05;;;13.90;97.10;;;11.87;100.00;100438.13;5053027;28;20055;-71
2021/09/14 05:31:56;;;;;;;14.50;9.05;;;13.90;97.10;;;11.85;100.00;100439.34;5069324;28;20048;-73
2021/09/14 05:34:25;;;;;;;14.45;9.57;;;13.90;97.00;;;11.91;100.00;100441.34;5052928;28;20067;-74
2021/09/14 05:36:53;;;;;;;14.18;9.02;;;13.90;97.00;;;11.95;100.00;100434.44;5052751;28;20514;-74
2021/09/14 05:39:22;;;;;;;13.07;8.77;;;14.00;97.10;;;12.01;100.00;100433.66;5052791;28;20056;-74
2021/09/14 05:41:50;;;;;;;13.60;9.45;;;13.90;97.10;;;12.11;100.00;100426.00;5065138;28;20041;-74
2021/09/14 05:44:18;;;;;;;13.13;8.68;;;14.00;97.30;;;12.14;100.00;100424.75;5069716;28;20408;-74
2021/09/14 05:46:46;;;;;;;15.38;9.68;;;14.00;97.50;;;12.26;100.00;100425.03;5048963;28;20045;-73
2021/09/14 05:49:15;;;;;;;15.95;10.32;;;14.00;97.70;;;12.22;100.00;100434.66;5052423;28;20492;-73
2021/09/14 05:51:42;;;;;;;14.75;10.50;;;14.10;97.80;;;12.34;100.00;100438.56;5051704;28;20048;-73
2021/09/14 05:54:10;;;;;;;13.43;9.98;;;14.10;97.80;;;12.40;100.00;100443.22;5052292;28;20057;-73
2021/09/14 05:56:39;;;;;;;15.35;10.80;;;14.10;97.80;;;12.47;100.00;100441.41;5052220;28;20103;-73
2021/09/14 05:59:12;;;;;;;18.00;10.63;;;14.20;97.90;;;12.57;100.00;100437.47;5052214;28;20047;-73
2021/09/14 06:01:40;;;;;;;19.48;10.93;;;14.20;98.00;;;12.71;100.00;100436.50;5052042;28;20052;-73
2021/09/14 06:04:08;;;;;;;15.88;10.75;;;14.30;98.30;;;12.79;100.00;100432.75;5052081;28;20110;-74
2021/09/14 06:06:39;;;;;;;18.73;12.20;;;14.30;98.60;;;12.88;100.00;100429.66;5051504;28;20854;-73
2021/09/14 06:09:09;;;;;;;16.58;11.77;;;14.40;98.80;;;13.02;100.00;100427.00;5051740;28;20466;-73
2021/09/14 06:11:39;;;;;;;20.23;11.85;;;14.40;99.00;;;13.11;100.00;100429.34;5042210;28;20051;-73
2021/09/14 06:14:06;;;;;;;23.10;13.15;;;14.50;99.10;;;13.21;100.00;100439.06;5040769;28;20759;-73
2021/09/14 06:16:34;;;;;;;18.80;12.27;;;14.60;99.20;;;13.31;100.00;100439.56;5040134;28;20045;-73
2021/09/14 06:19:01;;;;;;;17.30;12.02;;;14.70;99.40;;;13.39;100.00;100439.38;5051565;28;20559;-73
2021/09/14 06:21:37;;;;;;;23.20;13.75;;;14.70;99.40;;;13.48;100.00;100442.78;5048449;28;20056;-73
2021/09/14 06:24:09;;;;;;;19.83;12.85;;;14.80;99.50;;;13.48;100.00;100440.06;5034406;28;20045;-74
2021/09/14 06:26:37;;;;;;;25.92;13.73;;;14.90;99.50;;;13.62;100.00;100444.50;5031754;28;20128;-73
2021/09/14 06:29:04;;;;;;;21.27;13.68;;;14.90;99.40;;;13.71;100.00;100433.34;5071475;28;20036;-74
2021/09/14 06:31:32;;;;;;;27.65;13.65;;;15.00;99.30;;;13.76;100.00;100439.06;5049182;28;20141;-73
2021/09/14 06:33:59;;;;;;;21.20;13.57;;;15.10;99.20;;;13.81;100.00;100434.66;5048120;28;20049;-73
2021/09/14 06:36:27;;;;;;;18.58;13.05;;;15.10;99.20;;;13.81;100.00;100440.13;5031591;28;20073;-73
2021/09/14 06:38:54;;;;;;;20.48;14.13;;;15.10;99.00;;;13.90;100.00;100443.50;5031562;28;20053;-74
2021/09/14 06:41:25;;;;;;;19.80;13.82;;;15.20;98.90;;;14.01;100.00;100445.63;5043482;28;20118;-74
2021/09/14 06:43:53;;;;;;;18.83;12.65;;;15.30;98.90;;;14.02;100.00;100452.78;5050447;28;20052;-73
2021/09/14 06:46:23;;;;;;;19.23;13.43;;;15.40;98.70;;;14.04;100.00;100453.41;5051000;28;20048;-73
2021/09/14 06:49:17;;;;;;;19.17;13.13;;;15.40;98.60;;;14.10;100.00;100449.00;5064065;28;20056;-74
2021/09/14 06:51:44;;;;;;;22.38;14.00;;;15.40;98.50;;;14.27;100.00;100452.16;5051063;28;20535;-74
2021/09/14 06:54:12;;;;;;;22.27;12.43;;;15.60;98.50;;;14.43;100.00;100464.56;5067966;28;20044;-74
2021/09/14 06:56:42;;;;;;;19.20;12.43;;;15.60;98.20;;;14.56;99.60;100463.72;5050821;28;20064;-74
2021/09/14 06:59:09;;;;;;;20.25;13.25;;;15.70;98.20;;;14.69;98.81;100452.78;5050824;28;20527;-74
2021/09/14 07:01:36;;;;;;;16.25;12.40;;;15.70;97.90;;;14.83;98.61;100446.22;5058166;28;20075;-73
2021/09/14 07:04:04;;;;;;;17.55;12.60;;;15.80;98.20;;;14.96;98.23;100449.97;5068862;28;20048;-72
2021/09/14 07:06:31;;;;;;;18.60;13.27;;;15.90;97.80;;;15.10;98.51;100435.19;5068702;28;20040;-72
2021/09/14 07:08:59;;;;;;;19.75;13.13;;;16.00;98.10;;;15.21;99.05;100439.13;5050755;28;20048;-72
2021/09/14 07:11:26;;;;;;;20.08;12.95;;;16.10;98.50;;;15.37;97.59;100433.16;5065389;28;20044;-72
2021/09/14 07:13:57;;;;;;;17.23;12.50;;;16.20;98.00;;;15.49;96.84;100430.56;5049056;28;20132;-72
2021/09/14 07:16:25;;;;;;;20.08;12.50;;;16.30;97.90;;;15.58;95.94;100423.78;5047542;28;20048;-72
2021/09/14 07:18:53;;;;;;;20.00;12.40;;;16.40;97.40;;;15.67;96.91;100426.25;5048630;28;20048;-71
2021/09/14 07:21:20;;;;;;;22.20;12.90;;;16.40;97.70;;;15.79;96.91;100430.84;5048283;28;20055;-71
2021/09/14 07:23:47;;;;;;;22.13;12.60;;;16.50;98.10;;;15.88;95.88;100436.06;5067273;28;20041;-72
2021/09/14 07:26:15;;;;;;;17.40;12.13;;;16.70;97.60;;;15.97;95.24;100432.00;5068013;28;20106;-72
2021/09/14 07:28:42;;;;;;;19.38;12.65;;;16.70;97.50;;;16.01;94.12;100439.56;5068006;28;20045;-72
2021/09/14 07:31:12;;;;;;;21.13;13.50;;;16.80;96.50;;;16.03;93.14;100425.63;5067828;28;20095;-73
2021/09/14 07:33:39;;;;;;;18.38;12.23;;;16.80;95.50;;;16.12;93.48;100429.75;5066926;28;20072;-72
2021/09/14 07:36:08;;;;;;;18.98;12.65;;;16.90;96.20;;;16.25;92.76;100426.06;5067685;28;20060;-70
2021/09/14 07:38:36;;;;;;;16.73;12.13;;;16.90;96.10;;;16.33;92.75;100423.03;5068531;28;20060;-70
2021/09/14 07:41:04;;;;;;;18.42;12.10;;;17.00;95.80;;;16.36;93.50;100421.78;5067808;28;20047;-70
2021/09/14 07:43:31;;;;;;;19.92;12.13;;;17.00;96.30;;;16.46;92.60;100430.31;5066333;28;20055;-70
2021/09/14 07:45:59;;;;;;;17.98;11.75;;;17.10;96.10;;;16.53;92.55;100416.53;5067973;28;20094;-70
2021/09/14 07:48:28;;;;;;;17.70;12.35;;;17.20;95.70;;;16.62;92.07;100420.69;5068529;28;20052;-71
2021/09/14 07:50:55;;;;;;;16.70;11.57;;;17.30;95.90;;;16.72;91.67;100420.97;5054243;28;20662;-73
2021/09/14 07:53:23;;;;;;;16.35;11.13;;;17.40;95.50;;;16.81;90.67;100416.88;5066979;28;20044;-73
2021/09/14 07:55:50;;;;;;;18.77;11.98;;;17.40;94.90;;;16.86;89.77;100409.88;5030274;28;20555;-73
2021/09/14 07:58:17;;;;;;;21.42;11.77;;;17.40;94.20;;;16.97;89.99;100411.88;5069638;28;20040;-73
2021/09/14 08:00:47;;;;;;;18.30;11.07;;;17.50;94.60;;;17.09;89.78;100399.00;5082655;28;20060;-73
2021/09/14 08:03:14;;;;;;;16.13;10.60;;;17.60;94.60;;;17.26;89.28;100407.47;5053126;28;20046;-73
2021/09/14 08:05:43;;;;;;;18.77;11.50;;;17.70;94.70;;;17.32;89.28;100397.47;5074003;28;20109;-72
2021/09/14 08:08:10;;;;;;;15.60;10.45;;;17.80;94.50;;;17.36;88.84;100404.16;5066881;28;20119;-73
2021/09/14 08:10:38;;;;;;;15.95;10.32;;;17.90;94.40;;;17.43;88.48;100393.91;5070297;28;20040;-73
2021/09/14 08:13:05;;;;;;;14.57;9.73;;;18.00;93.50;;;17.48;87.56;100394.06;5066830;28;20161;-72
2021/09/14 08:15:33;;;;;;;16.00;9.98;;;18.00;92.80;;;17.48;87.83;100398.75;5069569;28;20045;-73
2021/09/14 08:18:00;;;;;;;13.35;9.70;;;18.00;93.10;;;17.58;87.90;100399.00;5082482;28;20746;-72
2021/09/14 08:20:27;;;;;;;13.32;9.77;;;18.10;93.60;;;17.67;88.14;100405.00;5075392;28;20052;-72
2021/09/14 08:22:56;;;;;;;12.80;9.35;;;18.20;93.30;;;17.70;87.17;100407.28;5049440;28;20082;-73
2021/09/14 08:25:24;;;;;;;14.30;9.38;;;18.30;92.60;;;17.70;86.89;100407.28;5070427;28;20044;-73
2021/09/14 08:27:51;;;;;;;12.55;9.20;;;18.30;92.40;;;17.70;87.88;100407.28;5073886;28;20831;-73
2021/09/14 08:30:18;;;;;;;16.48;9.40;;;18.40;92.80;;;17.77;87.76;100419.88;5078883;28;20048;-73
2021/09/14 08:32:46;;;;;;;15.35;9.10;;;18.40;92.70;;;17.80;87.65;100424.09;5068525;28;20036;-73
2021/09/14 08:35:13;;;;;;;15.27;9.48;;;18.50;92.90;;;17.83;87.71;100428.28;5054624;28;20089;-73
2021/09/14 08:37:40;;;;;;;20.52;8.93;;;18.60;92.30;;;17.94;87.17;100422.84;5058467;28;20052;-73
2021/09/14 08:40:11;;;;;;;13.25;8.88;;;18.60;91.60;;;18.08;86.95;100419.88;5076050;28;20588;-73
2021/09/14 08:42:39;;;;;;;15.10;8.65;;;18.70;91.80;;;18.13;85.97;100423.59;5065561;28;20465;-73
2021/09/14 08:45:09;;;;;;;15.68;8.98;;;18.70;91.30;;;18.27;87.57;100426.97;5073358;28;20118;-73
2021/09/14 08:47:38;;;;;;;14.90;8.93;;;18.80;92.70;;;18.39;86.75;100426.13;5072999;28;20044;-73
2021/09/14 08:50:08;;;;;;;11.95;8.60;;;18.90;92.10;;;18.46;85.94;100421.34;5079026;28;20064;-73
2021/09/14 08:52:35;;;;;;;13.75;8.60;;;19.00;91.50;;;18.52;85.61;100414.88;5066097;28;20045;-73
2021/09/14 08:55:04;;;;;;;12.55;7.78;;;19.10;91.40;;;18.57;85.10;100409.50;5068629;28;20090;-73
2021/09/14 08:57:33;;;;;;;14.85;8.15;;;19.20;90.80;;;18.61;85.41;100412.63;5071680;28;20049;-73
2021/09/14 09:00:01;;;;;;;13.40;7.95;;;19.20;90.80;;;18.65;85.39;100408.28;5071054;28;20067;-73
2021/09/14 09:02:28;;;;;;;12.70;7.70;;;19.30;90.60;;;18.67;83.43;100406.97;5073018;28;20040;-73
2021/09/14 09:05:00;;;;;;;13.45;7.47;;;19.40;89.40;;;18.65;83.47;100406.38;5078283;28;20511;-73
2021/09/14 09:07:34;;;;;;;11.18;7.35;;;19.40;88.80;;;18.69;84.14;100402.03;5053037;28;20774;-73
2021/09/14 09:10:16;;;;;;;9.57;7.13;;;19.50;89.40;;;18.73;83.60;100407.91;5071365;28;20144;-73
2021/09/14 09:12:50;;;;;;;11.38;7.22;;;19.60;88.60;;;18.76;81.76;100404.69;5067201;28;20099;-73
2021/09/14 09:15:27;;;;;;;11.75;7.15;;;19.60;87.30;;;18.79;85.08;100408.88;5032973;28;20073;-73
2021/09/14 09:18:06;;;;;;;10.48;6.57;;;19.70;89.70;;;18.88;84.48;100404.69;5061419;28;20060;-73
2021/09/14 09:20:35;;;;;;;14.40;6.53;;;19.80;88.70;;;18.84;82.14;100395.22;5056004;28;20041;-73
2021/09/14 09:23:07;;;;;;;10.82;6.22;;;19.80;86.70;;;18.90;81.83;100399.78;5058426;28;20051;-73
2021/09/14 09:25:35;;;;;;;13.77;7.20;;;19.90;86.70;;;18.94;81.72;100404.59;5067193;28;20044;-73
2021/09/14 09:28:13;;;;;;;9.93;6.72;;;20.00;86.60;;;18.98;80.74;100407.66;5046942;28;20495;-73
2021/09/14 09:30:53;;;;;;;11.43;5.95;;;20.00;85.70;;;18.93;81.09;100391.84;5062397;28;20091;-73
2021/09/14 09:33:25;;;;;;;8.07;5.80;;;20.00;85.70;;;18.99;81.91;100397.50;5058068;28;20098;-73
2021/09/14 09:35:59;;;;;;;13.25;6.80;;;20.10;86.40;;;19.01;81.90;100395.31;5064447;28;20046;-73
2021/09/14 09:38:26;;;;;;;12.98;6.85;;;20.10;86.30;;;19.01;81.49;100390.63;5065275;28;20115;-73
2021/09/14 09:40:54;;;;;;;9.95;6.43;;;20.20;85.80;;;19.04;81.84;100387.41;5070501;28;20046;-73
2021/09/14 09:43:30;;;;;;;11.63;6.70;;;20.20;85.80;;;19.12;81.41;100380.66;5068591;28;20095;-73
2021/09/14 09:46:07;;;;;;;9.52;6.32;;;20.30;85.70;;;19.14;82.91;100384.84;5070318;28;20103;-73
2021/09/14 09:48:37;;;;;;;10.25;6.78;;;20.30;86.70;;;19.15;82.21;100380.16;5050832;28;20134;-73
2021/09/14 09:51:05;;;;;;;11.20;6.30;;;20.40;85.70;;;19.19;83.40;100373.09;5049611;28;20090;-73
2021/09/14 09:53:36;;;;;;;12.88;6.28;;;20.40;86.60;;;19.22;82.43;100380.03;5052503;28;20119;-73
2021/09/14 09:56:05;;;;;;;12.15;6.93;;;20.50;85.70;;;19.25;82.60;100379.56;5071852;28;20052;-73
2021/09/14 09:58:34;;;;;;;9.95;6.70;;;20.50;86.00;;;19.27;83.10;100380.13;5068523;28;20094;-73
2021/09/14 10:01:12;;;;;;;10.35;6.75;;;20.50;86.40;;;19.26;82.49;100382.03;5069585;28;20083;-73
2021/09/14 10:03:59;;;;;;;11.55;6.68;;;20.50;85.70;;;19.24;82.29;100380.63;5065548;28;20056;-73
2021/09/14 10:06:30;;;;;;;13.13;6.70;;;20.60;85.60;;;19.31;83.31;100381.31;5068349;28;20527;-73
2021/09/14 10:08:58;;;;;;;8.77;5.57;;;20.60;86.20;;;19.45;83.42;100385.44;5060045;28;20037;-73
2021/09/14 10:11:30;;;;;;;8.50;5.03;;;20.70;86.40;;;19.56;81.34;100382.91;5055077;28;20127;-73
2021/09/14 10:14:07;;;;;;;10.48;6.32;;;20.70;85.00;;;19.67;80.91;100382.00;5051189;28;20039;-73
2021/09/14 10:16:39;;;;;;;8.43;5.50;;;20.80;84.80;;;19.72;80.59;100385.72;5069901;28;20044;-73
2021/09/14 10:19:15;;;;;;;11.73;5.00;;;20.80;84.50;;;19.76;82.49;100391.56;5052001;28;20052;-73
2021/09/14 10:21:45;;;;;;;10.93;5.53;;;20.90;86.10;;;19.82;82.46;100385.06;5057986;28;20413;-73
2021/09/14 10:24:20;;;;;;;8.50;5.30;;;21.00;85.70;;;19.96;81.92;100391.09;5047002;28;20750;-73
2021/09/14 10:26:49;;;;;;;9.48;4.97;;;21.10;85.50;;;20.00;81.29;100380.38;5069450;28;20052;-73
2021/09/14 10:29:20;;;;;;;7.22;5.20;;;21.20;84.80;;;20.01;80.33;100377.38;5048774;28;20040;-73
2021/09/14 10:31:47;;;;;;;9.45;4.95;;;21.20;84.30;;;20.00;80.19;100369.34;5062946;28;20045;-73
2021/09/14 10:34:16;;;;;;;8.52;5.95;;;21.20;84.10;;;20.05;79.85;100355.63;5069994;28;20585;-73
2021/09/14 10:37:00;;;;;;;9.05;5.72;;;21.20;83.80;;;20.06;79.60;100355.34;5061746;28;20040;-74
2021/09/14 10:39:28;;;;;;;7.85;5.10;;;21.20;83.80;;;20.09;80.16;100345.72;5069859;28;20044;-73
2021/09/14 10:41:56;;;;;;;9.43;5.18;;;21.30;84.30;;;20.12;79.88;100345.22;5067738;28;20048;-73
2021/09/14 10:44:31;;;;;;;7.45;5.00;;;21.30;83.80;;;20.11;80.71;100346.31;5069426;28;20048;-73
2021/09/14 10:47:07;;;;;;;7.68;5.10;;;21.40;84.30;;;20.11;80.62;100349.06;5069069;28;20558;-73
2021/09/14 10:49:51;;;;;;;9.45;5.32;;;21.40;84.00;;;20.14;80.72;100354.09;5035893;28;20052;-73
2021/09/14 10:52:31;;;;;;;9.45;5.00;;;21.40;84.00;;;20.22;80.63;100356.44;5046899;28;20053;-73
2021/09/14 10:54:59;;;;;;;10.80;5.18;;;21.40;83.90;;;20.32;81.11;100355.75;5067548;28;20546;-73
2021/09/14 10:57:34;;;;;;;9.65;5.82;;;21.50;84.80;;;20.38;79.04;100351.16;5069146;28;20041;-73